Time;durP1;ratioP1;P1;durP2;ratioP2;P2;SDS_P1;SDS_P2;PMS_P1;PMS_P2;Temp;Humidity;BMP_temperature;BMP_pressure;BME280_temperature;BME280_humidity;BME280_pressure;Samples;Min_cycle;Max_cycle;Signal;HPM_P1;HPM_P2
2022/03/18 00:01:13;;;;;;;14.15;9.85;;;3.30;99.90;;;;;;5068464;28;20021;-38
2022/03/18 00:03:39;;;;;;;21.10;10.80;;;3.30;99.90;;;;;;5068280;28;20025;-39
2022/03/18 00:06:05;;;;;;;18.10;11.45;;;3.20;99.90;;;;;;5049413;28;20135;-39
2022/03/18 00:08:30;;;;;;;19.83;11.18;;;3.30;99.90;;;;;;5068426;28;20028;-38
2022/03/18 00:10:56;;;;;;;15.93;10.57;;;3.20;99.90;;;;;;5068300;28;20082;-38
2022/03/18 00:13:21;;;;;;;21.05;11.52;;;3.20;99.90;;;;;;5068276;28;20024;-38
2022/03/18 00:15:47;;;;;;;19.55;10.60;;;3.20;99.90;;;;;;5067477;28;20438;-38
2022/03/18 00:18:12;;;;;;;18.27;10.85;;;3.20;99.90;;;;;;5050185;28;20095;-39
2022/03/18 00:20:38;;;;;;;21.02;10.20;;;3.20;99.90;;;;;;5053031;28;20631;-38
2022/03/18 00:23:03;;;;;;;17.42;10.60;;;3.10;99.90;;;;;;5046128;28;20016;-38
2022/03/18 00:25:29;;;;;;;18.52;11.00;;;3.10;99.90;;;;;;5067261;28;20475;-39
2022/03/18 00:27:55;;;;;;;20.65;10.75;;;3.10;99.90;;;;;;5050132;28;20112;-38
2022/03/18 00:30:20;;;;;;;17.90;10.80;;;3.10;99.90;;;;;;5067941;28;20104;-38
2022/03/18 00:32:49;;;;;;;17.48;10.90;;;3.10;99.90;;;;;;5070645;28;20059;-38
2022/03/18 00:35:15;;;;;;;17.10;9.45;;;3.00;99.90;;;;;;5071843;28;20017;-38
2022/03/18 00:37:40;;;;;;;15.07;9.40;;;3.00;99.90;;;;;;5070939;28;20082;-38
2022/03/18 00:40:07;;;;;;;15.68;8.90;;;3.00;99.90;;;;;;5071548;28;20390;-38
2022/03/18 00:42:33;;;;;;;17.63;10.02;;;3.00;99.90;;;;;;5071711;28;20399;-38
2022/03/18 00:44:59;;;;;;;18.00;10.27;;;2.90;99.90;;;;;;5071495;28;20020;-38
2022/03/18 00:52:53;;;;;;;15.70;9.30;;;2.90;99.90;;;;;;5066406;28;20032;-38
2022/03/18 00:55:19;;;;;;;15.77;9.48;;;2.80;99.90;;;;;;5071146;28;20044;-39
2022/03/18 00:57:44;;;;;;;19.65;8.70;;;2.80;99.90;;;;;;5070597;28;20463;-38
2022/03/18 01:00:10;;;;;;;19.75;8.82;;;2.80;99.90;;;;;;5071131;28;20190;-38
2022/03/18 01:02:36;;;;;;;13.68;8.30;;;2.70;99.90;;;;;;5071117;28;20048;-39
2022/03/18 01:05:02;;;;;;;22.08;11.88;;;2.70;99.90;;;;;;5052848;28;20450;-38
2022/03/18 01:07:28;;;;;;;15.68;9.02;;;2.70;99.90;;;;;;5070613;28;20463;-38
2022/03/18 01:09:54;;;;;;;14.60;8.32;;;2.60;99.90;;;;;;5071175;28;20017;-39
2022/03/18 01:12:20;;;;;;;15.75;8.52;;;2.60;99.90;;;;;;5071263;28;20486;-38
2022/03/18 01:14:45;;;;;;;14.07;8.45;;;2.60;99.90;;;;;;5071431;28;20090;-38
2022/03/18 01:17:11;;;;;;;17.98;9.15;;;2.60;99.90;;;;;;5070189;28;20399;-38
2022/03/18 01:19:36;;;;;;;23.35;9.98;;;2.60;99.90;;;;;;5063646;28;20483;-38
2022/03/18 01:22:02;;;;;;;19.00;9.98;;;2.60;99.90;;;;;;5057578;28;20023;-39
2022/03/18 01:24:28;;;;;;;19.73;8.95;;;2.50;99.90;;;;;;5030553;28;20268;-38
2022/03/18 01:26:53;;;;;;;15.98;9.18;;;2.50;99.90;;;;;;5030199;28;20032;-38
2022/03/18 01:29:19;;;;;;;14.18;8.63;;;2.40;99.90;;;;;;5030815;28;20580;-38
2022/03/18 01:31:44;;;;;;;14.27;8.70;;;2.40;99.90;;;;;;5030682;28;20401;-38
2022/03/18 01:34:10;;;;;;;15.05;8.43;;;2.40;99.90;;;;;;5030717;28;20105;-38
2022/03/18 01:36:36;;;;;;;18.85;9.35;;;2.40;99.90;;;;;;5029791;28;20036;-38
2022/03/18 01:39:02;;;;;;;25.73;9.80;;;2.40;99.90;;;;;;5029271;28;20483;-38
2022/03/18 01:41:27;;;;;;;20.77;9.40;;;2.30;99.90;;;;;;5030611;28;20102;-38
2022/03/18 01:43:53;;;;;;;15.73;8.68;;;2.30;99.90;;;;;;5030443;28;20052;-38
2022/03/18 01:46:19;;;;;;;15.20;9.57;;;2.30;99.90;;;;;;5029982;28;20104;-38
2022/03/18 01:48:45;;;;;;;15.50;8.13;;;2.30;99.90;;;;;;5030693;28;20079;-38
2022/03/18 01:51:15;;;;;;;17.25;8.90;;;2.30;99.90;;;;;;5049981;28;20510;-39
2022/03/18 01:53:43;;;;;;;16.15;7.43;;;2.30;99.90;;;;;;5070773;28;20017;-38
2022/03/18 01:56:09;;;;;;;14.07;7.85;;;2.20;99.90;;;;;;5069920;28;20036;-38
2022/03/18 01:58:34;;;;;;;16.50;8.00;;;2.20;99.90;;;;;;5070231;28;20033;-38
2022/03/18 02:01:00;;;;;;;16.27;8.15;;;2.20;99.90;;;;;;5070052;28;20487;-38
2022/03/18 02:03:26;;;;;;;18.67;8.88;;;2.20;99.90;;;;;;5070375;28;20108;-38
2022/03/18 02:05:51;;;;;;;15.63;7.85;;;2.20;99.90;;;;;;5069082;28;20103;-38
2022/03/18 02:08:20;;;;;;;13.85;7.82;;;2.20;99.90;;;;;;5052354;28;20032;-38
2022/03/18 02:10:46;;;;;;;19.80;8.23;;;2.20;99.90;;;;;;5039126;28;20057;-39
2022/03/18 02:13:12;;;;;;;20.05;8.80;;;2.10;99.90;;;;;;5050224;28;20036;-39
2022/03/18 02:15:38;;;;;;;14.10;7.20;;;2.10;99.90;;;;;;5048997;28;20288;-39
2022/03/18 02:18:06;;;;;;;12.18;7.25;;;2.10;99.90;;;;;;5049912;28;20037;-39
2022/03/18 02:20:32;;;;;;;16.73;7.50;;;2.10;99.90;;;;;;5034960;28;20054;-39
2022/03/18 02:22:58;;;;;;;16.48;8.15;;;2.10;99.90;;;;;;5054151;28;20028;-40
2022/03/18 02:25:24;;;;;;;13.15;7.13;;;2.00;99.90;;;;;;5031495;28;20024;-40
2022/03/18 02:27:58;;;;;;;14.50;7.68;;;2.10;99.90;;;;;;5049536;28;20471;-39
2022/03/18 02:30:26;;;;;;;14.98;7.20;;;2.00;99.90;;;;;;5049819;28;20021;-39
2022/03/18 02:32:52;;;;;;;11.93;7.55;;;2.00;99.90;;;;;;5049828;28;20070;-39
2022/03/18 02:35:17;;;;;;;11.38;6.80;;;2.00;99.90;;;;;;5049254;28;20430;-39
2022/03/18 02:37:43;;;;;;;14.80;6.93;;;2.00;99.90;;;;;;5048851;28;20497;-40
2022/03/18 02:40:09;;;;;;;12.10;7.32;;;1.90;99.90;;;;;;5049217;28;20492;-40
2022/03/18 02:42:34;;;;;;;17.25;7.70;;;1.90;99.90;;;;;;5031114;28;20033;-39
2022/03/18 02:45:00;;;;;;;18.00;9.32;;;1.90;99.90;;;;;;5048740;28;20028;-39
2022/03/18 02:47:26;;;;;;;22.67;9.32;;;1.80;99.90;;;;;;5048834;28;20021;-39
2022/03/18 02:49:52;;;;;;;22.75;9.95;;;1.80;99.90;;;;;;5048445;28;20027;-39
2022/03/18 02:52:17;;;;;;;23.88;9.35;;;1.80;99.90;;;;;;5054203;28;20170;-39
2022/03/18 02:54:43;;;;;;;17.08;10.43;;;1.80;99.90;;;;;;5049218;28;20027;-39
2022/03/18 02:57:09;;;;;;;14.15;9.02;;;1.80;99.90;;;;;;5048343;28;20048;-39
2022/03/18 02:59:34;;;;;;;19.05;7.88;;;1.90;99.90;;;;;;5048636;28;20032;-39
2022/03/18 03:02:00;;;;;;;14.75;9.65;;;1.80;99.90;;;;;;5048808;28;20039;-39
2022/03/18 03:04:26;;;;;;;15.65;8.10;;;1.90;99.90;;;;;;5048288;28;20039;-39
2022/03/18 03:09:36;;;;;;;14.25;7.38;;;1.70;99.90;;;;;;5048951;28;20099;-39
2022/03/18 03:12:02;;;;;;;18.77;9.43;;;1.70;99.90;;;;;;5030882;28;20431;-39
2022/03/18 03:14:27;;;;;;;23.73;9.25;;;1.70;99.90;;;;;;5048649;28;20035;-39
2022/03/18 03:16:53;;;;;;;17.73;9.50;;;1.60;99.90;;;;;;5048049;28;20057;-39
2022/03/18 03:19:19;;;;;;;18.67;8.73;;;1.70;99.90;;;;;;5048401;28;20514;-39
2022/03/18 03:21:44;;;;;;;24.77;10.65;;;1.70;99.90;;;;;;5030562;28;20029;-39
2022/03/18 03:24:10;;;;;;;21.60;8.90;;;1.70;99.90;;;;;;5065600;28;20064;-39
2022/03/18 03:26:36;;;;;;;16.67;8.23;;;1.70;99.90;;;;;;5049916;28;20028;-39
2022/03/18 03:29:02;;;;;;;18.40;9.27;;;1.70;99.90;;;;;;5068731;28;20464;-39
2022/03/18 03:31:28;;;;;;;17.05;8.93;;;1.70;99.90;;;;;;5068603;28;20032;-39
2022/03/18 03:33:53;;;;;;;23.67;9.25;;;1.70;99.90;;;;;;5050401;28;20320;-39
2022/03/18 03:36:20;;;;;;;18.65;9.73;;;1.70;99.90;;;;;;5067674;28;20104;-39
2022/03/18 03:38:45;;;;;;;28.33;10.48;;;1.70;99.90;;;;;;5068656;28;20032;-39
2022/03/18 03:41:11;;;;;;;23.10;10.60;;;1.60;99.90;;;;;;5068525;28;20025;-39
2022/03/18 03:43:38;;;;;;;21.02;10.63;;;1.60;99.90;;;;;;5068585;28;20490;-39
2022/03/18 03:46:04;;;;;;;19.85;9.85;;;1.60;99.90;;;;;;5067559;28;20259;-39
2022/03/18 03:48:29;;;;;;;15.13;9.88;;;1.60;99.90;;;;;;5068390;28;20468;-39
2022/03/18 03:50:55;;;;;;;20.60;10.23;;;1.60;99.90;;;;;;5033498;28;20110;-41
2022/03/18 03:53:20;;;;;;;18.00;8.75;;;1.60;99.90;;;;;;5066779;28;20328;-39
2022/03/18 03:55:46;;;;;;;24.45;10.20;;;1.60;99.90;;;;;;5067721;28;20797;-39
2022/03/18 03:58:11;;;;;;;22.15;9.52;;;1.60;99.90;;;;;;5068515;28;20025;-39
2022/03/18 04:00:37;;;;;;;24.10;10.07;;;1.60;99.90;;;;;;5068659;28;20368;-39
2022/03/18 04:03:04;;;;;;;19.42;9.75;;;1.60;99.90;;;;;;5050135;28;20029;-39
2022/03/18 04:05:33;;;;;;;22.75;9.77;;;1.60;99.90;;;;;;5049272;28;20059;-39
2022/03/18 04:08:00;;;;;;;23.55;9.98;;;1.50;99.90;;;;;;5071215;28;20056;-39
2022/03/18 04:10:26;;;;;;;22.65;10.75;;;1.50;99.90;;;;;;5072328;28;20021;-39
2022/03/18 04:12:52;;;;;;;25.45;9.98;;;1.50;99.90;;;;;;5072031;28;20021;-39
2022/03/18 04:15:18;;;;;;;21.58;9.40;;;1.50;99.90;;;;;;5072408;28;20029;-39
2022/03/18 04:17:46;;;;;;;17.75;10.10;;;1.40;99.90;;;;;;5071767;28;20475;-39
2022/03/18 04:20:17;;;;;;;14.85;9.23;;;1.40;99.90;;;;;;5062361;28;20556;-39
2022/03/18 04:22:43;;;;;;;17.60;9.25;;;1.30;99.90;;;;;;5034147;28;20037;-39
2022/03/18 04:25:10;;;;;;;20.73;10.15;;;1.30;99.90;;;;;;5052082;28;20021;-39
2022/03/18 04:27:36;;;;;;;15.55;8.43;;;1.30;99.90;;;;;;5033416;28;20021;-39
2022/03/18 04:30:04;;;;;;;14.93;8.80;;;1.30;99.90;;;;;;5051737;28;20427;-39
2022/03/18 04:32:29;;;;;;;16.35;8.57;;;1.30;99.90;;;;;;5033916;28;20021;-39
2022/03/18 04:34:55;;;;;;;22.67;9.82;;;1.20;99.90;;;;;;5050436;28;20032;-39
2022/03/18 04:37:20;;;;;;;13.85;8.75;;;1.20;99.90;;;;;;5050675;28;20208;-39
2022/03/18 04:39:46;;;;;;;17.30;8.35;;;1.20;99.90;;;;;;5051665;28;20495;-39
2022/03/18 04:42:12;;;;;;;18.65;9.05;;;1.20;99.90;;;;;;5051276;28;20104;-39
2022/03/18 04:44:38;;;;;;;20.67;9.98;;;1.20;99.90;;;;;;5050376;28;20032;-39
2022/03/18 04:47:04;;;;;;;18.70;8.43;;;1.10;99.90;;;;;;5050774;28;20018;-39
2022/03/18 04:49:30;;;;;;;17.63;8.25;;;1.10;99.90;;;;;;5051301;28;20025;-39
2022/03/18 04:51:55;;;;;;;16.60;7.90;;;1.10;99.90;;;;;;5057673;28;20069;-39
2022/03/18 04:54:20;;;;;;;17.02;6.82;;;1.10;99.90;;;;;;5071355;28;20047;-39
2022/03/18 04:59:30;;;;;;;17.13;7.72;;;1.10;99.90;;;;;;5051147;28;20087;-38
2022/03/18 05:01:56;;;;;;;14.70;8.70;;;1.10;99.90;;;;;;5052121;28;20032;-39
2022/03/18 05:04:21;;;;;;;14.95;8.57;;;1.10;99.90;;;;;;5051646;28;20108;-39
2022/03/18 05:06:47;;;;;;;20.33;8.43;;;1.10;99.90;;;;;;5051060;28;20025;-39
2022/03/18 05:09:13;;;;;;;15.57;7.40;;;1.10;99.90;;;;;;5051367;28;20364;-39
2022/03/18 05:11:38;;;;;;;12.68;8.23;;;1.10;99.90;;;;;;5051111;28;20029;-38
2022/03/18 05:14:04;;;;;;;14.15;8.13;;;1.00;99.90;;;;;;5050974;28;20092;-38
2022/03/18 05:16:29;;;;;;;16.15;8.25;;;1.00;99.90;;;;;;5032379;28;20108;-38
2022/03/18 05:18:55;;;;;;;16.33;9.20;;;1.00;99.90;;;;;;5049900;28;20060;-39
2022/03/18 05:21:22;;;;;;;19.55;9.75;;;1.00;99.90;;;;;;5060833;28;20036;-38
2022/03/18 05:23:48;;;;;;;16.50;8.98;;;1.00;99.90;;;;;;5070827;28;20032;-39
2022/03/18 05:26:13;;;;;;;20.48;9.52;;;1.00;99.90;;;;;;5070062;28;20051;-38
2022/03/18 05:28:39;;;;;;;18.70;9.02;;;1.00;99.90;;;;;;5070750;28;20021;-40
2022/03/18 05:31:05;;;;;;;14.20;8.38;;;1.00;99.90;;;;;;5071075;28;20086;-39
2022/03/18 05:33:30;;;;;;;23.13;8.50;;;1.00;99.90;;;;;;5070622;28;20031;-39
2022/03/18 05:35:56;;;;;;;18.80;8.38;;;1.00;99.90;;;;;;5069959;28;20107;-39
2022/03/18 05:38:21;;;;;;;14.65;7.60;;;1.00;99.90;;;;;;5070528;28;20108;-42
2022/03/18 05:40:47;;;;;;;18.60;8.25;;;0.90;99.90;;;;;;5070282;28;20157;-39
2022/03/18 05:43:13;;;;;;;19.55;8.55;;;1.00;99.90;;;;;;5070725;28;20040;-38
2022/03/18 05:45:39;;;;;;;15.13;7.40;;;0.90;99.90;;;;;;5069699;28;20074;-38
2022/03/18 05:48:06;;;;;;;17.67;8.13;;;0.90;99.90;;;;;;5070003;28;20433;-39
2022/03/18 05:50:33;;;;;;;17.35;8.75;;;0.90;99.90;;;;;;5057793;28;20016;-39
2022/03/18 05:52:58;;;;;;;18.92;8.13;;;0.90;99.90;;;;;;5065790;28;20433;-39
2022/03/18 05:55:24;;;;;;;17.52;7.60;;;0.90;99.90;;;;;;5069817;28;20036;-47
2022/03/18 05:57:52;;;;;;;20.67;8.73;;;0.90;99.90;;;;;;5053579;28;20028;-47
2022/03/18 06:00:18;;;;;;;13.90;7.78;;;0.80;99.90;;;;;;5053947;28;20036;-47
2022/03/18 06:02:45;;;;;;;19.73;8.77;;;0.90;99.90;;;;;;5053235;28;20036;-47
2022/03/18 06:05:10;;;;;;;16.17;8.30;;;0.90;99.90;;;;;;5071342;28;20024;-47
2022/03/18 06:07:37;;;;;;;12.27;7.13;;;0.90;99.90;;;;;;5053044;28;20152;-46
2022/03/18 06:12:48;;;;;;;14.13;8.88;;;0.90;99.90;;;;;;5027099;28;20032;-49
2022/03/18 06:15:14;;;;;;;23.60;9.40;;;0.80;99.90;;;;;;5050417;28;20028;-46
2022/03/18 06:17:39;;;;;;;15.68;7.88;;;0.80;99.90;;;;;;5070679;28;20021;-46
2022/03/18 06:20:06;;;;;;;19.30;7.47;;;0.90;99.90;;;;;;5071501;28;20101;-47
2022/03/18 06:22:31;;;;;;;31.65;10.02;;;0.90;99.90;;;;;;5069490;28;20237;-48
2022/03/18 06:24:56;;;;;;;18.27;7.75;;;0.90;99.90;;;;;;5069604;28;20574;-48
2022/03/18 06:27:22;;;;;;;17.17;8.68;;;1.00;99.90;;;;;;5068600;28;20029;-46
2022/03/18 06:29:47;;;;;;;15.32;8.75;;;1.00;99.90;;;;;;5068557;28;20471;-48
2022/03/18 06:32:13;;;;;;;22.45;8.70;;;1.00;99.90;;;;;;5069147;28;20067;-48
2022/03/18 06:34:39;;;;;;;17.38;8.77;;;1.00;99.90;;;;;;5069268;28;20391;-48
2022/03/18 06:37:04;;;;;;;20.67;8.32;;;1.10;99.90;;;;;;5068490;28;20016;-48
2022/03/18 06:39:31;;;;;;;21.25;10.52;;;1.10;99.90;;;;;;5069351;28;20475;-48
2022/03/18 06:41:56;;;;;;;20.00;10.10;;;1.20;99.90;;;;;;5038927;28;20047;-48
2022/03/18 06:44:22;;;;;;;18.15;9.65;;;1.30;99.90;;;;;;5059413;28;20519;-48
2022/03/18 06:46:48;;;;;;;18.98;10.27;;;1.40;99.90;;;;;;5068343;28;20031;-48
2022/03/18 06:49:14;;;;;;;23.70;10.80;;;1.40;99.90;;;;;;5051867;28;20407;-46
2022/03/18 06:51:41;;;;;;;22.48;12.20;;;1.50;99.90;;;;;;5048551;28;20048;-47
2022/03/18 06:54:07;;;;;;;32.90;13.38;;;1.60;99.90;;;;;;5065484;28;20035;-45
2022/03/18 06:56:33;;;;;;;27.88;12.07;;;1.60;99.90;;;;;;5032318;28;20036;-45
2022/03/18 06:58:59;;;;;;;26.77;13.57;;;1.60;99.90;;;;;;5048895;28;20021;-45
2022/03/18 07:01:25;;;;;;;29.00;12.40;;;1.70;99.90;;;;;;5048688;28;20120;-45
2022/03/18 07:03:51;;;;;;;31.67;14.48;;;1.70;99.90;;;;;;5048726;28;20546;-46
2022/03/18 07:06:16;;;;;;;25.05;11.70;;;1.80;99.90;;;;;;5048031;28;20036;-46
2022/03/18 07:08:42;;;;;;;27.45;12.45;;;1.80;99.90;;;;;;5030744;28;20505;-46
2022/03/18 07:11:13;;;;;;;25.08;11.93;;;1.80;99.90;;;;;;5048839;28;20029;-46
2022/03/18 07:13:41;;;;;;;26.00;12.65;;;1.90;99.90;;;;;;5049184;28;20372;-46
2022/03/18 07:18:51;;;;;;;32.92;14.20;;;2.00;99.90;;;;;;5033901;28;20120;-46
2022/03/18 07:21:16;;;;;;;31.48;13.88;;;2.10;99.90;;;;;;5048302;28;20103;-45
2022/03/18 07:23:42;;;;;;;39.60;15.82;;;2.20;99.90;;;;;;5061764;28;20024;-46
2022/03/18 07:26:07;;;;;;;39.53;17.38;;;2.20;99.90;;;;;;5068205;28;20060;-45
2022/03/18 07:28:33;;;;;;;29.00;15.68;;;2.20;99.90;;;;;;5068360;28;20017;-45
2022/03/18 07:30:58;;;;;;;35.35;16.08;;;2.30;99.90;;;;;;5068533;28;20032;-46
2022/03/18 07:33:24;;;;;;;27.73;15.05;;;2.30;99.90;;;;;;5067272;28;20494;-46
2022/03/18 07:35:49;;;;;;;40.67;17.48;;;2.40;99.90;;;;;;5067554;28;20043;-45
2022/03/18 07:38:15;;;;;;;24.55;13.82;;;2.40;99.90;;;;;;5068476;28;20278;-46
2022/03/18 07:40:40;;;;;;;38.03;15.63;;;2.50;99.90;;;;;;5068201;28;20496;-46
2022/03/18 07:43:07;;;;;;;31.75;14.88;;;2.50;99.90;;;;;;5068547;28;20029;-46
2022/03/18 07:45:34;;;;;;;36.75;15.93;;;2.60;99.90;;;;;;5067757;28;20078;-46
2022/03/18 07:48:01;;;;;;;25.25;13.27;;;2.70;99.90;;;;;;5068389;28;20482;-46
2022/03/18 07:50:29;;;;;;;30.95;14.48;;;2.70;99.90;;;;;;5057210;28;20120;-47
2022/03/18 07:52:57;;;;;;;27.05;13.40;;;2.80;99.90;;;;;;5054827;28;20023;-46
2022/03/18 07:55:27;;;;;;;39.40;15.35;;;2.90;99.90;;;;;;5049808;28;20090;-46
2022/03/18 07:57:53;;;;;;;37.65;14.98;;;3.00;99.90;;;;;;5050116;28;20445;-46
2022/03/18 08:00:20;;;;;;;32.85;15.30;;;3.10;99.90;;;;;;5068318;28;20043;-46
2022/03/18 08:02:47;;;;;;;32.92;14.43;;;3.20;99.90;;;;;;5068090;28;20039;-47
2022/03/18 08:05:14;;;;;;;30.80;14.02;;;3.40;99.90;;;;;;5067803;28;20127;-46
2022/03/18 08:07:41;;;;;;;33.75;14.63;;;3.50;99.90;;;;;;5067980;28;20043;-45
2022/03/18 08:10:08;;;;;;;28.35;14.77;;;3.60;99.90;;;;;;5068511;28;20106;-46
2022/03/18 08:12:35;;;;;;;38.55;14.05;;;3.70;99.90;;;;;;5068375;28;20024;-47
2022/03/18 08:15:05;;;;;;;29.88;13.85;;;3.80;99.90;;;;;;5050187;28;20124;-46
2022/03/18 08:17:30;;;;;;;30.10;13.82;;;3.90;99.90;;;;;;5067314;28;20031;-39
2022/03/18 08:19:56;;;;;;;27.48;14.55;;;4.00;99.90;;;;;;5062383;28;20029;-39
2022/03/18 08:22:22;;;;;;;28.52;14.60;;;4.20;99.90;;;;;;5050342;28;20033;-39
2022/03/18 08:24:49;;;;;;;28.65;13.10;;;4.30;99.90;;;;;;5068071;28;20391;-39
2022/03/18 08:27:15;;;;;;;26.85;12.45;;;4.50;99.90;;;;;;5049501;28;20507;-39
2022/03/18 08:29:40;;;;;;;29.25;11.82;;;4.60;99.90;;;;;;5068047;28;20103;-39
2022/03/18 08:32:07;;;;;;;23.65;12.85;;;4.70;99.90;;;;;;5068052;28;20032;-39
2022/03/18 08:34:33;;;;;;;24.23;11.38;;;4.90;99.90;;;;;;5067989;28;20102;-39
2022/03/18 08:36:59;;;;;;;19.90;8.93;;;5.60;99.90;;;;;;5067013;28;20499;-39
2022/03/18 08:39:24;;;;;;;16.90;7.43;;;7.00;99.90;;;;;;5049851;28;20394;-38
2022/03/18 08:41:50;;;;;;;14.07;5.70;;;8.90;99.90;;;;;;5067825;28;20021;-38
2022/03/18 08:44:19;;;;;;;11.73;5.35;;;11.10;99.90;;;;;;5067792;28;20458;-38
2022/03/18 08:46:46;;;;;;;16.23;6.00;;;12.70;99.90;;;;;;5067043;28;20065;-38
2022/03/18 08:49:12;;;;;;;15.77;6.88;;;14.50;99.90;;;;;;5068117;28;20055;-39
2022/03/18 08:51:38;;;;;;;9.93;5.10;;;15.70;93.70;;;;;;5047245;28;20386;-39
2022/03/18 08:54:04;;;;;;;9.57;4.70;;;16.90;90.80;;;;;;5067144;28;20024;-39
2022/03/18 08:56:30;;;;;;;14.80;5.15;;;18.20;84.20;;;;;;5070748;28;20050;-40
2022/03/18 08:58:56;;;;;;;10.63;4.68;;;18.70;77.10;;;;;;5071564;28;20051;-39
2022/03/18 09:01:22;;;;;;;14.32;5.15;;;19.70;69.60;;;;;;5053459;28;20052;-40
2022/03/18 09:03:48;;;;;;;12.32;5.05;;;20.50;67.90;;;;;;5071041;28;20020;-39
2022/03/18 09:06:14;;;;;;;13.02;4.65;;;21.00;64.90;;;;;;5070044;28;20074;-39
2022/03/18 09:08:40;;;;;;;11.30;4.63;;;21.20;61.40;;;;;;5071047;28;20031;-39
2022/03/18 09:11:07;;;;;;;11.75;5.18;;;20.90;62.10;;;;;;5071333;28;20157;-40
2022/03/18 09:13:34;;;;;;;12.32;5.15;;;20.80;62.40;;;;;;5071002;28;20020;-38
2022/03/18 09:16:00;;;;;;;13.18;5.20;;;21.20;60.40;;;;;;5070444;28;20127;-40
2022/03/18 09:18:25;;;;;;;10.18;4.20;;;21.30;59.30;;;;;;5071116;28;20583;-39
2022/03/18 09:20:51;;;;;;;14.20;5.28;;;21.50;60.10;;;;;;5058217;28;20203;-39
2022/03/18 09:23:17;;;;;;;11.63;5.22;;;21.60;58.40;;;;;;5060603;28;20028;-40
2022/03/18 09:25:43;;;;;;;12.70;4.60;;;22.10;57.90;;;;;;5070202;28;20039;-38
2022/03/18 09:28:08;;;;;;;15.43;5.15;;;22.50;56.10;;;;;;5070889;28;20029;-38
2022/03/18 09:30:33;;;;;;;21.17;10.35;;;22.00;56.20;;;;;;5071027;28;20028;-39
2022/03/18 09:33:01;;;;;;;45.45;34.65;;;22.10;56.80;;;;;;5070911;28;20636;-38
2022/03/18 09:35:27;;;;;;;12.07;4.97;;;21.80;57.20;;;;;;5052884;28;20074;-39
2022/03/18 09:37:53;;;;;;;9.43;4.00;;;22.50;55.50;;;;;;5072367;28;20491;-39
2022/03/18 09:40:18;;;;;;;10.15;4.32;;;22.60;55.30;;;;;;5053169;28;20021;-39
2022/03/18 09:43:14;;;;;;;13.93;4.40;;;22.50;54.60;;;;;;5051884;28;20472;-39
2022/03/18 09:45:40;;;;;;;11.13;4.68;;;22.00;55.60;;;;;;5016587;28;20120;-39
2022/03/18 09:48:10;;;;;;;8.85;3.92;;;22.30;52.90;;;;;;5033490;28;20535;-40
2022/03/18 09:50:41;;;;;;;8.13;3.47;;;22.10;56.70;;;;;;5032639;28;20537;-39
2022/03/18 09:53:08;;;;;;;16.33;4.22;;;22.10;54.70;;;;;;5056428;28;20029;-40
2022/03/18 09:55:37;;;;;;;14.43;3.80;;;22.30;54.10;;;;;;5050834;28;20032;-39
2022/03/18 09:58:03;;;;;;;13.90;3.92;;;22.60;53.00;;;;;;5051335;28;20024;-39
2022/03/18 10:00:29;;;;;;;11.02;4.03;;;22.50;53.90;;;;;;5033304;28;20032;-40
2022/03/18 10:03:17;;;;;;;9.85;3.78;;;23.00;54.30;;;;;;5051642;28;20029;-39
2022/03/18 10:05:59;;;;;;;12.50;4.25;;;23.10;53.70;;;;;;5049297;28;20130;-39
2022/03/18 10:08:37;;;;;;;10.60;4.65;;;23.30;52.60;;;;;;5050123;28;20392;-39
2022/03/18 10:11:23;;;;;;;13.65;4.35;;;23.70;53.00;;;;;;5051091;28;20017;-39
2022/03/18 10:14:08;;;;;;;9.20;3.42;;;23.50;51.70;;;;;;5050706;28;20040;-39
2022/03/18 10:16:41;;;;;;;6.20;3.30;;;23.50;51.20;;;;;;5047356;28;20025;-39
2022/03/18 10:19:18;;;;;;;12.88;3.78;;;23.70;50.40;;;;;;5050450;28;20060;-39
2022/03/18 10:21:58;;;;;;;11.35;4.03;;;23.70;50.10;;;;;;5034626;28;20469;-39
2022/03/18 10:24:30;;;;;;;9.15;3.45;;;24.30;50.40;;;;;;5051033;28;20037;-39
2022/03/18 10:27:13;;;;;;;9.98;3.55;;;23.80;50.30;;;;;;5031085;28;20035;-40
2022/03/18 10:29:41;;;;;;;10.15;3.63;;;24.90;46.80;;;;;;5050243;28;20391;-40
2022/03/18 10:32:08;;;;;;;7.25;3.38;;;24.50;48.80;;;;;;5050550;28;20510;-39
2022/03/18 10:37:21;;;;;;;10.10;3.63;;;25.10;49.50;;;;;;5050236;28;20031;-40
2022/03/18 10:39:48;;;;;;;10.73;3.13;;;25.30;48.80;;;;;;5032414;28;20025;-40
2022/03/18 10:42:15;;;;;;;11.48;3.10;;;24.60;50.40;;;;;;5049400;28;20021;-41
2022/03/18 10:44:53;;;;;;;8.80;3.53;;;24.40;49.60;;;;;;5031405;28;20119;-38
2022/03/18 10:47:33;;;;;;;9.60;3.20;;;24.40;49.30;;;;;;5048857;28;20032;-39
2022/03/18 10:50:11;;;;;;;10.50;3.05;;;24.40;50.00;;;;;;5048747;28;20471;-39
2022/03/18 10:52:46;;;;;;;10.13;3.40;;;25.10;48.50;;;;;;5041913;28;20108;-38
2022/03/18 10:55:26;;;;;;;9.75;3.28;;;25.10;49.30;;;;;;5049036;28;20028;-38
2022/03/18 10:57:53;;;;;;;9.77;3.38;;;23.80;49.70;;;;;;5049037;28;20036;-39
2022/03/18 11:00:20;;;;;;;12.25;3.45;;;23.90;50.60;;;;;;5031048;28;20036;-39
2022/03/18 11:02:49;;;;;;;12.85;3.83;;;24.10;50.20;;;;;;5030789;28;20120;-39
2022/03/18 11:05:18;;;;;;;13.05;3.25;;;24.10;50.10;;;;;;5048678;28;20536;-39
2022/03/18 11:07:45;;;;;;;8.95;3.38;;;24.40;50.90;;;;;;5048490;28;20044;-39
2022/03/18 11:12:56;;;;;;;9.60;3.65;;;24.70;50.30;;;;;;5049160;28;20474;-39
2022/03/18 11:15:26;;;;;;;14.68;4.28;;;24.80;50.80;;;;;;5048226;28;20024;-39
2022/03/18 11:17:55;;;;;;;10.75;3.75;;;24.70;50.70;;;;;;5048507;28;20029;-40
2022/03/18 11:20:23;;;;;;;11.15;4.53;;;24.30;48.00;;;;;;5048447;28;20397;-39
2022/03/18 11:22:49;;;;;;;8.15;4.03;;;23.10;50.90;;;;;;5036793;28;20166;-39
2022/03/18 11:25:16;;;;;;;15.82;4.38;;;21.50;54.40;;;;;;5068914;28;20108;-39
2022/03/18 11:27:44;;;;;;;11.93;3.42;;;22.30;54.70;;;;;;5050074;28;20028;-38
2022/03/18 11:30:22;;;;;;;13.07;3.90;;;23.10;53.50;;;;;;5068541;28;20382;-38
2022/03/18 11:33:05;;;;;;;9.90;3.33;;;24.00;52.10;;;;;;5068801;28;20444;-38
2022/03/18 11:35:52;;;;;;;10.23;4.07;;;24.30;50.80;;;;;;5067722;28;20485;-39
2022/03/18 11:38:26;;;;;;;9.07;3.65;;;24.40;50.10;;;;;;5068540;28;20033;-38
2022/03/18 11:40:58;;;;;;;9.93;4.57;;;24.10;51.60;;;;;;5068568;28;20024;-38
2022/03/18 11:43:48;;;;;;;11.25;3.58;;;23.70;51.90;;;;;;5067199;28;20074;-38
2022/03/18 11:46:16;;;;;;;10.32;4.10;;;23.40;50.70;;;;;;5049702;28;20048;-38
2022/03/18 11:48:54;;;;;;;9.32;4.18;;;23.50;49.80;;;;;;5068265;28;20025;-38
2022/03/18 11:51:37;;;;;;;8.35;3.20;;;23.70;50.20;;;;;;5033508;28;20033;-38
2022/03/18 11:54:23;;;;;;;12.65;4.15;;;24.40;51.00;;;;;;5064222;28;20012;-38
2022/03/18 11:56:54;;;;;;;11.68;3.67;;;23.80;49.40;;;;;;5067741;28;20501;-41
2022/03/18 12:01:37;;;;;;;14.88;4.55;;;24.10;50.40;;;;;;5147559;27;20101;-39
2022/03/18 12:04:05;;;;;;;7.25;3.55;;;23.70;51.70;;;;;;5148034;27;20102;-39
2022/03/18 12:06:31;;;;;;;7.25;3.40;;;24.00;51.50;;;;;;5129066;27;20117;-39
2022/03/18 12:08:58;;;;;;;11.07;3.70;;;23.50;51.00;;;;;;5130488;27;20110;-39
2022/03/18 12:11:33;;;;;;;13.88;3.95;;;23.00;53.30;;;;;;5128823;27;20031;-38
2022/03/18 12:13:59;;;;;;;11.30;3.60;;;22.90;51.40;;;;;;5147841;27;20035;-39
2022/03/18 12:16:25;;;;;;;11.65;3.65;;;23.10;51.60;;;;;;5146757;27;20015;-39
2022/03/18 12:18:55;;;;;;;9.40;3.40;;;22.70;51.40;;;;;;5147715;27;20394;-39
2022/03/18 12:21:37;;;;;;;;;;;22.60;52.60;;;;;;5147064;27;20015;-39
2022/03/18 12:24:08;;;;;;;9.70;3.70;;;22.50;54.40;;;;;;5146551;27;19904;-40
2022/03/18 12:26:35;;;;;;;9.38;3.63;;;21.70;53.50;;;;;;5147145;27;20026;-40
2022/03/18 12:29:01;;;;;;;12.85;3.92;;;21.40;54.30;;;;;;5147896;27;20022;-40
2022/03/18 12:31:26;;;;;;;12.00;3.97;;;20.90;56.60;;;;;;5148478;27;20083;-39
2022/03/18 12:33:57;;;;;;;17.17;4.05;;;20.80;56.10;;;;;;5147988;27;20026;-39
2022/03/18 12:36:27;;;;;;;9.75;3.60;;;20.60;55.00;;;;;;5145959;27;20091;-39
2022/03/18 12:39:13;;;;;;;7.63;4.03;;;20.60;55.30;;;;;;5148220;27;20075;-40
2022/03/18 12:41:40;;;;;;;9.82;4.32;;;20.10;57.40;;;;;;5128577;27;20689;-39
2022/03/18 12:44:06;;;;;;;12.82;3.83;;;19.60;58.10;;;;;;5147091;27;20027;-39
2022/03/18 12:46:34;;;;;;;13.57;4.15;;;19.60;56.90;;;;;;5146424;27;20026;-39
2022/03/18 12:49:00;;;;;;;10.50;4.13;;;19.60;57.30;;;;;;5146407;27;20031;-40
2022/03/18 12:51:26;;;;;;;10.18;4.25;;;19.00;59.40;;;;;;5150198;27;20022;-39
2022/03/18 12:53:52;;;;;;;14.10;3.65;;;18.70;60.10;;;;;;5149466;27;20094;-39
2022/03/18 12:56:19;;;;;;;12.45;3.60;;;18.40;60.60;;;;;;5146668;27;20041;-38
2022/03/18 12:58:45;;;;;;;10.50;3.72;;;18.40;61.40;;;;;;5128223;27;20027;-39
2022/03/18 13:01:12;;;;;;;11.20;3.50;;;18.50;61.10;;;;;;5129145;27;20559;-39
2022/03/18 13:03:58;;;;;;;10.55;3.45;;;18.60;61.70;;;;;;5147429;27;20015;-39
2022/03/18 13:06:27;;;;;;;10.07;3.80;;;18.40;59.80;;;;;;5101972;28;20547;-40
2022/03/18 13:09:04;;;;;;;14.13;3.35;;;18.40;59.80;;;;;;5091210;27;20023;-39